Lafargeville, New York
Current Conditions -  °F | °C
As of 6:56 AM on Thursday 18 Dec 2014 (Local Time) from KART Reporting Station
Overcast Overcast  
Wind Chill: 25°   Ceiling: 1800
Heat Index: 34°   Visibility: 10mi
Dew Point: 26°   Wind: 14mph
Humidity: 73%   Direction: 280°W
Pressure: 29.96"   Gusts: NA
Location:  44.1911°N, 75.9494°W
Report Text: KART 181156Z AUTO 28012KT 10SM OVC018 01/M03 A2996 RMK AO2 SNE42 SLP148 P0000 60000 70016 T00111033 10028 20011 53018
Loading
Personal Weather Stations






























Interactive Weather Map New forecast layout! Learn more

10-Day Weather Forecast

Advertisements
Track Severe Weather on mobile